Salt Lake City, Utah
Traffic Map
Current Weather Conditions
Salt Lake City, Utah
Few Clouds
Few Clouds
71°
Feels Like: 71°
Wind Chill: 71° Ceiling: Unl
Heat Index: 71° Visibility: 10mi
Dew Point: 44° Wind: 14mph
Humidity: 38% Direction: 150° (SSE)
Pressure: 30.07in Gusts: 0mph
Raw Report DataKSLC 271454Z 15012KT 10SM FEW200 22/07 A3007 RMK AO2 SLP132 T02170067 51009
Traffic Incident Summary
Active as of:
Severity:
Category:
InformationThere was an issue retrieving the traffic information for this location. Please try a different location or try again shortly.
Advertisements
Track Severe Weather on mobile